sensor_id;sensor_type;location;lat;lon;timestamp;P1;durP1;ratioP1;P2;durP2;ratioP2
24159;SDS011;62385;41.594;23.808;2023-10-19T00:01:07;0.80;;;0.80;;
24159;SDS011;62385;41.594;23.808;2023-10-19T00:03:34;4.28;;;0.80;;
24159;SDS011;62385;41.594;23.808;2023-10-19T00:06:00;1.85;;;1.55;;
24159;SDS011;62385;41.594;23.808;2023-10-19T00:08:25;1.77;;;0.90;;
24159;SDS011;62385;41.594;23.808;2023-10-19T00:11:01;0.75;;;0.55;;
24159;SDS011;62385;41.594;23.808;2023-10-19T00:13:35;1.05;;;0.68;;
24159;SDS011;62385;41.594;23.808;2023-10-19T00:16:01;0.90;;;0.68;;
24159;SDS011;62385;41.594;23.808;2023-10-19T00:18:32;1.92;;;1.40;;
24159;SDS011;62385;41.594;23.808;2023-10-19T00:20:59;2.78;;;0.90;;
24159;SDS011;62385;41.594;23.808;2023-10-19T00:23:36;1.27;;;1.08;;
24159;SDS011;62385;41.594;23.808;2023-10-19T00:26:05;4.80;;;1.50;;
24159;SDS011;62385;41.594;23.808;2023-10-19T00:28:42;2.70;;;1.25;;
24159;SDS011;62385;41.594;23.808;2023-10-19T00:31:10;2.70;;;1.83;;
24159;SDS011;62385;41.594;23.808;2023-10-19T00:33:37;3.13;;;1.15;;
24159;SDS011;62385;41.594;23.808;2023-10-19T00:36:24;3.53;;;1.98;;
24159;SDS011;62385;41.594;23.808;2023-10-19T00:38:51;2.45;;;0.70;;
24159;SDS011;62385;41.594;23.808;2023-10-19T00:41:23;1.27;;;0.85;;
24159;SDS011;62385;41.594;23.808;2023-10-19T00:43:57;1.30;;;1.15;;
24159;SDS011;62385;41.594;23.808;2023-10-19T00:46:35;2.50;;;1.88;;
24159;SDS011;62385;41.594;23.808;2023-10-19T00:49:05;1.10;;;1.00;;
24159;SDS011;62385;41.594;23.808;2023-10-19T00:51:36;0.82;;;0.60;;
24159;SDS011;62385;41.594;23.808;2023-10-19T00:54:11;2.28;;;1.55;;
24159;SDS011;62385;41.594;23.808;2023-10-19T00:57:02;1.30;;;0.73;;
24159;SDS011;62385;41.594;23.808;2023-10-19T00:59:51;1.42;;;0.77;;
24159;SDS011;62385;41.594;23.808;2023-10-19T01:02:25;1.58;;;0.98;;
24159;SDS011;62385;41.594;23.808;2023-10-19T01:04:52;1.52;;;1.08;;
24159;SDS011;62385;41.594;23.808;2023-10-19T01:07:22;3.17;;;1.20;;
24159;SDS011;62385;41.594;23.808;2023-10-19T01:09:54;1.15;;;0.90;;
24159;SDS011;62385;41.594;23.808;2023-10-19T01:12:25;0.98;;;0.88;;
24159;SDS011;62385;41.594;23.808;2023-10-19T01:15:05;1.38;;;1.23;;
24159;SDS011;62385;41.594;23.808;2023-10-19T01:17:57;1.08;;;0.90;;
24159;SDS011;62385;41.594;23.808;2023-10-19T01:23:00;0.75;;;0.70;;
24159;SDS011;62385;41.594;23.808;2023-10-19T01:25:31;1.30;;;1.08;;
24159;SDS011;62385;41.594;23.808;2023-10-19T01:28:06;2.17;;;0.70;;
24159;SDS011;62385;41.594;23.808;2023-10-19T01:30:33;0.88;;;0.88;;
24159;SDS011;62385;41.594;23.808;2023-10-19T01:32:59;0.63;;;0.52;;
24159;SDS011;62385;41.594;23.808;2023-10-19T01:35:25;0.60;;;0.60;;
24159;SDS011;62385;41.594;23.808;2023-10-19T01:37:52;0.68;;;0.63;;
24159;SDS011;62385;41.594;23.808;2023-10-19T01:40:18;0.50;;;0.45;;
24159;SDS011;62385;41.594;23.808;2023-10-19T01:42:46;1.05;;;0.70;;
24159;SDS011;62385;41.594;23.808;2023-10-19T01:45:12;1.17;;;0.80;;
24159;SDS011;62385;41.594;23.808;2023-10-19T01:47:39;0.75;;;0.75;;
24159;SDS011;62385;41.594;23.808;2023-10-19T01:50:06;1.45;;;1.23;;
24159;SDS011;62385;41.594;23.808;2023-10-19T01:52:44;5.65;;;1.75;;
24159;SDS011;62385;41.594;23.808;2023-10-19T01:55:10;3.47;;;1.25;;
24159;SDS011;62385;41.594;23.808;2023-10-19T01:57:37;1.55;;;1.00;;
24159;SDS011;62385;41.594;23.808;2023-10-19T02:00:04;2.05;;;1.08;;
24159;SDS011;62385;41.594;23.808;2023-10-19T02:02:37;3.40;;;1.20;;
24159;SDS011;62385;41.594;23.808;2023-10-19T02:05:03;1.08;;;0.85;;
24159;SDS011;62385;41.594;23.808;2023-10-19T02:07:33;1.83;;;1.05;;
24159;SDS011;62385;41.594;23.808;2023-10-19T02:10:00;4.10;;;1.45;;
24159;SDS011;62385;41.594;23.808;2023-10-19T02:12:27;5.07;;;2.47;;
24159;SDS011;62385;41.594;23.808;2023-10-19T02:14:52;2.28;;;1.77;;
24159;SDS011;62385;41.594;23.808;2023-10-19T02:17:18;1.00;;;0.75;;
24159;SDS011;62385;41.594;23.808;2023-10-19T02:19:44;1.90;;;1.13;;
24159;SDS011;62385;41.594;23.808;2023-10-19T02:22:09;2.25;;;1.52;;
24159;SDS011;62385;41.594;23.808;2023-10-19T02:24:37;1.35;;;0.73;;
24159;SDS011;62385;41.594;23.808;2023-10-19T02:27:04;3.97;;;1.70;;
24159;SDS011;62385;41.594;23.808;2023-10-19T02:29:29;2.25;;;1.50;;
24159;SDS011;62385;41.594;23.808;2023-10-19T02:32:14;2.95;;;0.85;;
24159;SDS011;62385;41.594;23.808;2023-10-19T02:34:43;2.20;;;1.75;;
24159;SDS011;62385;41.594;23.808;2023-10-19T02:37:08;4.88;;;1.30;;
24159;SDS011;62385;41.594;23.808;2023-10-19T02:39:52;0.80;;;0.73;;
24159;SDS011;62385;41.594;23.808;2023-10-19T02:42:18;1.40;;;0.70;;
24159;SDS011;62385;41.594;23.808;2023-10-19T02:44:43;6.43;;;0.90;;
24159;SDS011;62385;41.594;23.808;2023-10-19T02:47:09;1.83;;;1.08;;
24159;SDS011;62385;41.594;23.808;2023-10-19T02:49:34;1.02;;;0.65;;
24159;SDS011;62385;41.594;23.808;2023-10-19T02:52:08;1.15;;;0.68;;
24159;SDS011;62385;41.594;23.808;2023-10-19T02:54:35;1.02;;;1.00;;
24159;SDS011;62385;41.594;23.808;2023-10-19T02:57:02;1.70;;;1.15;;
24159;SDS011;62385;41.594;23.808;2023-10-19T02:59:32;1.60;;;1.25;;
24159;SDS011;62385;41.594;23.808;2023-10-19T03:01:58;0.82;;;0.82;;
24159;SDS011;62385;41.594;23.808;2023-10-19T03:04:34;1.25;;;1.02;;
24159;SDS011;62385;41.594;23.808;2023-10-19T03:07:03;1.15;;;1.00;;
24159;SDS011;62385;41.594;23.808;2023-10-19T03:09:30;2.25;;;0.50;;
24159;SDS011;62385;41.594;23.808;2023-10-19T03:12:02;1.52;;;0.43;;
24159;SDS011;62385;41.594;23.808;2023-10-19T03:14:30;0.45;;;0.43;;
24159;SDS011;62385;41.594;23.808;2023-10-19T03:16:59;0.60;;;0.50;;
24159;SDS011;62385;41.594;23.808;2023-10-19T03:19:25;0.65;;;0.55;;
24159;SDS011;62385;41.594;23.808;2023-10-19T03:21:55;2.05;;;1.00;;
24159;SDS011;62385;41.594;23.808;2023-10-19T03:24:20;1.13;;;0.85;;
24159;SDS011;62385;41.594;23.808;2023-10-19T03:27:00;5.50;;;0.90;;
24159;SDS011;62385;41.594;23.808;2023-10-19T03:29:25;1.33;;;0.90;;
24159;SDS011;62385;41.594;23.808;2023-10-19T03:31:57;1.50;;;1.35;;
24159;SDS011;62385;41.594;23.808;2023-10-19T03:34:24;1.15;;;1.05;;
24159;SDS011;62385;41.594;23.808;2023-10-19T03:36:50;0.73;;;0.30;;
24159;SDS011;62385;41.594;23.808;2023-10-19T03:39:17;0.52;;;0.52;;
24159;SDS011;62385;41.594;23.808;2023-10-19T03:41:45;0.60;;;0.60;;
24159;SDS011;62385;41.594;23.808;2023-10-19T03:44:11;1.30;;;0.80;;
24159;SDS011;62385;41.594;23.808;2023-10-19T03:46:49;0.93;;;0.85;;
24159;SDS011;62385;41.594;23.808;2023-10-19T03:49:30;0.88;;;0.80;;
24159;SDS011;62385;41.594;23.808;2023-10-19T03:52:05;1.10;;;0.80;;
24159;SDS011;62385;41.594;23.808;2023-10-19T03:54:34;1.13;;;1.02;;
24159;SDS011;62385;41.594;23.808;2023-10-19T03:57:04;1.33;;;1.13;;
24159;SDS011;62385;41.594;23.808;2023-10-19T03:59:37;1.45;;;1.23;;
24159;SDS011;62385;41.594;23.808;2023-10-19T04:02:04;1.25;;;0.75;;
24159;SDS011;62385;41.594;23.808;2023-10-19T04:04:39;0.45;;;0.30;;
24159;SDS011;62385;41.594;23.808;2023-10-19T04:07:14;3.35;;;1.23;;
24159;SDS011;62385;41.594;23.808;2023-10-19T04:09:49;2.65;;;0.98;;
24159;SDS011;62385;41.594;23.808;2023-10-19T04:12:48;3.03;;;1.02;;
24159;SDS011;62385;41.594;23.808;2023-10-19T04:15:13;3.58;;;1.23;;
24159;SDS011;62385;41.594;23.808;2023-10-19T04:17:45;0.82;;;0.57;;
24159;SDS011;62385;41.594;23.808;2023-10-19T04:20:16;1.70;;;1.00;;
24159;SDS011;62385;41.594;23.808;2023-10-19T04:22:49;1.20;;;0.60;;
24159;SDS011;62385;41.594;23.808;2023-10-19T04:25:16;1.92;;;1.65;;
24159;SDS011;62385;41.594;23.808;2023-10-19T04:27:50;1.73;;;1.20;;
24159;SDS011;62385;41.594;23.808;2023-10-19T04:30:16;0.85;;;0.57;;
24159;SDS011;62385;41.594;23.808;2023-10-19T04:32:45;1.27;;;1.02;;
24159;SDS011;62385;41.594;23.808;2023-10-19T04:35:11;1.70;;;1.05;;
24159;SDS011;62385;41.594;23.808;2023-10-19T04:37:40;0.73;;;0.73;;
24159;SDS011;62385;41.594;23.808;2023-10-19T04:40:10;0.98;;;0.57;;
24159;SDS011;62385;41.594;23.808;2023-10-19T04:42:37;3.30;;;1.10;;
24159;SDS011;62385;41.594;23.808;2023-10-19T04:45:03;1.40;;;1.10;;
24159;SDS011;62385;41.594;23.808;2023-10-19T04:47:30;1.70;;;1.00;;
24159;SDS011;62385;41.594;23.808;2023-10-19T04:49:56;1.80;;;0.77;;
24159;SDS011;62385;41.594;23.808;2023-10-19T04:52:22;9.18;;;2.00;;
24159;SDS011;62385;41.594;23.808;2023-10-19T04:54:47;1.10;;;1.00;;
24159;SDS011;62385;41.594;23.808;2023-10-19T04:57:14;1.73;;;1.17;;
24159;SDS011;62385;41.594;23.808;2023-10-19T04:59:40;0.93;;;0.82;;
24159;SDS011;62385;41.594;23.808;2023-10-19T05:02:09;3.05;;;1.52;;
24159;SDS011;62385;41.594;23.808;2023-10-19T05:04:35;1.83;;;1.40;;
24159;SDS011;62385;41.594;23.808;2023-10-19T05:07:01;1.67;;;1.50;;
24159;SDS011;62385;41.594;23.808;2023-10-19T05:09:28;1.58;;;1.48;;
24159;SDS011;62385;41.594;23.808;2023-10-19T05:11:55;4.30;;;1.20;;
24159;SDS011;62385;41.594;23.808;2023-10-19T05:14:22;1.35;;;1.25;;
24159;SDS011;62385;41.594;23.808;2023-10-19T05:16:48;1.65;;;1.33;;
24159;SDS011;62385;41.594;23.808;2023-10-19T05:19:14;1.98;;;0.90;;
24159;SDS011;62385;41.594;23.808;2023-10-19T05:21:40;2.47;;;2.00;;
24159;SDS011;62385;41.594;23.808;2023-10-19T05:24:06;1.25;;;1.02;;
24159;SDS011;62385;41.594;23.808;2023-10-19T05:26:35;5.05;;;2.50;;
24159;SDS011;62385;41.594;23.808;2023-10-19T05:29:01;2.25;;;1.45;;
24159;SDS011;62385;41.594;23.808;2023-10-19T05:31:27;3.25;;;1.40;;
24159;SDS011;62385;41.594;23.808;2023-10-19T05:33:53;3.03;;;1.70;;
24159;SDS011;62385;41.594;23.808;2023-10-19T05:36:20;2.97;;;1.52;;
24159;SDS011;62385;41.594;23.808;2023-10-19T05:38:46;4.82;;;1.73;;
24159;SDS011;62385;41.594;23.808;2023-10-19T05:41:12;2.58;;;1.15;;
24159;SDS011;62385;41.594;23.808;2023-10-19T05:43:38;6.07;;;0.75;;
24159;SDS011;62385;41.594;23.808;2023-10-19T05:46:04;0.80;;;0.73;;
24159;SDS011;62385;41.594;23.808;2023-10-19T05:48:29;5.13;;;1.35;;
24159;SDS011;62385;41.594;23.808;2023-10-19T05:50:55;1.20;;;1.10;;
24159;SDS011;62385;41.594;23.808;2023-10-19T05:53:21;1.67;;;1.48;;
24159;SDS011;62385;41.594;23.808;2023-10-19T05:55:48;1.30;;;1.23;;
24159;SDS011;62385;41.594;23.808;2023-10-19T05:58:14;5.05;;;2.00;;
24159;SDS011;62385;41.594;23.808;2023-10-19T06:00:42;3.67;;;3.17;;
24159;SDS011;62385;41.594;23.808;2023-10-19T06:03:08;4.78;;;2.05;;
24159;SDS011;62385;41.594;23.808;2023-10-19T06:05:35;6.47;;;2.55;;
24159;SDS011;62385;41.594;23.808;2023-10-19T06:08:00;4.15;;;2.13;;
24159;SDS011;62385;41.594;23.808;2023-10-19T06:10:26;2.45;;;1.90;;
24159;SDS011;62385;41.594;23.808;2023-10-19T06:12:53;7.63;;;2.65;;
24159;SDS011;62385;41.594;23.808;2023-10-19T06:15:19;4.15;;;3.10;;
24159;SDS011;62385;41.594;23.808;2023-10-19T06:17:47;6.75;;;2.85;;
24159;SDS011;62385;41.594;23.808;2023-10-19T06:20:14;2.40;;;2.15;;
24159;SDS011;62385;41.594;23.808;2023-10-19T06:22:53;8.07;;;3.30;;
24159;SDS011;62385;41.594;23.808;2023-10-19T06:25:22;2.78;;;1.83;;
24159;SDS011;62385;41.594;23.808;2023-10-19T06:27:50;3.60;;;2.42;;
24159;SDS011;62385;41.594;23.808;2023-10-19T06:30:17;1.52;;;1.40;;
24159;SDS011;62385;41.594;23.808;2023-10-19T06:32:47;2.53;;;2.33;;
24159;SDS011;62385;41.594;23.808;2023-10-19T06:35:17;1.85;;;1.60;;
24159;SDS011;62385;41.594;23.808;2023-10-19T06:37:44;1.98;;;1.75;;
24159;SDS011;62385;41.594;23.808;2023-10-19T06:40:10;2.00;;;1.70;;
24159;SDS011;62385;41.594;23.808;2023-10-19T06:42:39;0.80;;;0.77;;
24159;SDS011;62385;41.594;23.808;2023-10-19T06:45:04;2.30;;;0.82;;
24159;SDS011;62385;41.594;23.808;2023-10-19T06:47:32;6.97;;;3.17;;
24159;SDS011;62385;41.594;23.808;2023-10-19T06:50:03;7.60;;;3.25;;
24159;SDS011;62385;41.594;23.808;2023-10-19T06:52:35;6.80;;;2.03;;
24159;SDS011;62385;41.594;23.808;2023-10-19T06:55:03;3.70;;;1.85;;
24159;SDS011;62385;41.594;23.808;2023-10-19T06:57:51;5.05;;;2.40;;
24159;SDS011;62385;41.594;23.808;2023-10-19T07:00:18;3.67;;;1.48;;
24159;SDS011;62385;41.594;23.808;2023-10-19T07:02:45;2.15;;;1.98;;
24159;SDS011;62385;41.594;23.808;2023-10-19T07:05:12;4.47;;;2.38;;
24159;SDS011;62385;41.594;23.808;2023-10-19T07:07:41;10.40;;;7.35;;
24159;SDS011;62385;41.594;23.808;2023-10-19T07:10:08;5.78;;;3.58;;
24159;SDS011;62385;41.594;23.808;2023-10-19T07:12:37;9.00;;;3.70;;
24159;SDS011;62385;41.594;23.808;2023-10-19T07:15:07;8.90;;;2.72;;
24159;SDS011;62385;41.594;23.808;2023-10-19T07:18:04;4.65;;;2.10;;
24159;SDS011;62385;41.594;23.808;2023-10-19T07:20:41;1.23;;;0.95;;
24159;SDS011;62385;41.594;23.808;2023-10-19T07:23:08;9.07;;;5.03;;
24159;SDS011;62385;41.594;23.808;2023-10-19T07:26:03;4.60;;;2.13;;
24159;SDS011;62385;41.594;23.808;2023-10-19T07:32:41;1.63;;;0.82;;
24159;SDS011;62385;41.594;23.808;2023-10-19T07:35:08;4.72;;;2.83;;
24159;SDS011;62385;41.594;23.808;2023-10-19T07:38:09;4.13;;;2.95;;
24159;SDS011;62385;41.594;23.808;2023-10-19T07:40:35;3.35;;;1.95;;
24159;SDS011;62385;41.594;23.808;2023-10-19T07:46:20;9.40;;;1.98;;
24159;SDS011;62385;41.594;23.808;2023-10-19T07:49:00;6.15;;;2.80;;
24159;SDS011;62385;41.594;23.808;2023-10-19T07:51:44;7.45;;;3.33;;
24159;SDS011;62385;41.594;23.808;2023-10-19T07:54:11;2.75;;;2.38;;
24159;SDS011;62385;41.594;23.808;2023-10-19T07:56:37;3.42;;;2.42;;
24159;SDS011;62385;41.594;23.808;2023-10-19T07:59:03;2.45;;;1.60;;
24159;SDS011;62385;41.594;23.808;2023-10-19T08:01:33;4.45;;;2.28;;
24159;SDS011;62385;41.594;23.808;2023-10-19T08:03:59;5.45;;;3.10;;
24159;SDS011;62385;41.594;23.808;2023-10-19T08:23:10;4.25;;;2.70;;
24159;SDS011;62385;41.594;23.808;2023-10-19T08:26:17;5.15;;;3.00;;
24159;SDS011;62385;41.594;23.808;2023-10-19T08:33:33;11.70;;;5.70;;
24159;SDS011;62385;41.594;23.808;2023-10-19T08:36:39;5.85;;;3.28;;
24159;SDS011;62385;41.594;23.808;2023-10-19T08:39:27;4.45;;;2.17;;
24159;SDS011;62385;41.594;23.808;2023-10-19T08:41:53;3.05;;;1.50;;
24159;SDS011;62385;41.594;23.808;2023-10-19T08:44:21;5.05;;;2.38;;
24159;SDS011;62385;41.594;23.808;2023-10-19T08:46:46;1.80;;;1.27;;
24159;SDS011;62385;41.594;23.808;2023-10-19T08:49:15;4.35;;;2.08;;
24159;SDS011;62385;41.594;23.808;2023-10-19T08:51:45;4.43;;;2.13;;
24159;SDS011;62385;41.594;23.808;2023-10-19T08:54:12;2.20;;;0.98;;
24159;SDS011;62385;41.594;23.808;2023-10-19T08:56:39;1.35;;;0.80;;
24159;SDS011;62385;41.594;23.808;2023-10-19T08:59:06;0.90;;;0.77;;
24159;SDS011;62385;41.594;23.808;2023-10-19T09:01:42;2.80;;;1.40;;
24159;SDS011;62385;41.594;23.808;2023-10-19T09:04:11;1.33;;;1.17;;
24159;SDS011;62385;41.594;23.808;2023-10-19T09:06:37;1.15;;;1.05;;
24159;SDS011;62385;41.594;23.808;2023-10-19T09:09:10;1.95;;;0.95;;
24159;SDS011;62385;41.594;23.808;2023-10-19T09:11:45;3.95;;;1.10;;
24159;SDS011;62385;41.594;23.808;2023-10-19T09:14:14;5.80;;;1.30;;
24159;SDS011;62385;41.594;23.808;2023-10-19T09:16:55;2.92;;;1.63;;
24159;SDS011;62385;41.594;23.808;2023-10-19T09:22:08;2.03;;;1.52;;
24159;SDS011;62385;41.594;23.808;2023-10-19T09:24:50;0.90;;;0.85;;
24159;SDS011;62385;41.594;23.808;2023-10-19T09:27:21;5.13;;;1.70;;
24159;SDS011;62385;41.594;23.808;2023-10-19T09:29:48;1.95;;;1.15;;
24159;SDS011;62385;41.594;23.808;2023-10-19T09:32:16;1.40;;;0.80;;
24159;SDS011;62385;41.594;23.808;2023-10-19T09:34:42;1.95;;;1.08;;
24159;SDS011;62385;41.594;23.808;2023-10-19T09:37:10;0.80;;;0.70;;
24159;SDS011;62385;41.594;23.808;2023-10-19T09:39:37;2.25;;;1.23;;
24159;SDS011;62385;41.594;23.808;2023-10-19T09:44:38;3.13;;;0.90;;
24159;SDS011;62385;41.594;23.808;2023-10-19T09:47:14;3.10;;;1.33;;
24159;SDS011;62385;41.594;23.808;2023-10-19T09:49:45;3.08;;;1.30;;
24159;SDS011;62385;41.594;23.808;2023-10-19T09:52:16;1.33;;;1.13;;
24159;SDS011;62385;41.594;23.808;2023-10-19T09:57:37;4.13;;;1.42;;
24159;SDS011;62385;41.594;23.808;2023-10-19T10:00:10;3.15;;;1.17;;
24159;SDS011;62385;41.594;23.808;2023-10-19T10:02:57;2.75;;;1.15;;
24159;SDS011;62385;41.594;23.808;2023-10-19T10:15:55;1.90;;;1.35;;
24159;SDS011;62385;41.594;23.808;2023-10-19T10:18:32;2.53;;;1.35;;
24159;SDS011;62385;41.594;23.808;2023-10-19T10:23:44;1.40;;;0.75;;
24159;SDS011;62385;41.594;23.808;2023-10-19T10:26:13;2.80;;;1.02;;
24159;SDS011;62385;41.594;23.808;2023-10-19T10:28:40;3.20;;;1.17;;
24159;SDS011;62385;41.594;23.808;2023-10-19T10:33:50;2.53;;;0.88;;
24159;SDS011;62385;41.594;23.808;2023-10-19T10:36:57;2.42;;;1.58;;
24159;SDS011;62385;41.594;23.808;2023-10-19T10:39:25;1.48;;;1.13;;
24159;SDS011;62385;41.594;23.808;2023-10-19T10:41:55;2.65;;;1.20;;
24159;SDS011;62385;41.594;23.808;2023-10-19T10:44:37;1.70;;;0.93;;
24159;SDS011;62385;41.594;23.808;2023-10-19T10:47:10;1.23;;;0.80;;
24159;SDS011;62385;41.594;23.808;2023-10-19T10:54:55;2.60;;;1.65;;
24159;SDS011;62385;41.594;23.808;2023-10-19T10:57:21;0.95;;;0.73;;
24159;SDS011;62385;41.594;23.808;2023-10-19T10:59:46;3.80;;;1.25;;
24159;SDS011;62385;41.594;23.808;2023-10-19T11:02:18;0.95;;;0.50;;
24159;SDS011;62385;41.594;23.808;2023-10-19T11:04:47;2.03;;;1.25;;
24159;SDS011;62385;41.594;23.808;2023-10-19T11:07:19;1.58;;;1.15;;
24159;SDS011;62385;41.594;23.808;2023-10-19T11:09:45;1.08;;;0.98;;
24159;SDS011;62385;41.594;23.808;2023-10-19T11:12:12;1.27;;;0.93;;
24159;SDS011;62385;41.594;23.808;2023-10-19T11:17:18;1.42;;;1.13;;
24159;SDS011;62385;41.594;23.808;2023-10-19T11:19:44;1.40;;;1.30;;
24159;SDS011;62385;41.594;23.808;2023-10-19T11:22:11;3.60;;;1.85;;
24159;SDS011;62385;41.594;23.808;2023-10-19T11:24:37;2.33;;;1.27;;
24159;SDS011;62385;41.594;23.808;2023-10-19T11:27:05;1.48;;;0.98;;
24159;SDS011;62385;41.594;23.808;2023-10-19T11:29:33;2.20;;;1.65;;
24159;SDS011;62385;41.594;23.808;2023-10-19T11:32:01;1.55;;;1.40;;
24159;SDS011;62385;41.594;23.808;2023-10-19T11:34:27;1.25;;;0.95;;
24159;SDS011;62385;41.594;23.808;2023-10-19T11:36:54;1.25;;;1.05;;
24159;SDS011;62385;41.594;23.808;2023-10-19T11:39:25;1.30;;;1.00;;
24159;SDS011;62385;41.594;23.808;2023-10-19T11:41:52;2.55;;;1.27;;
24159;SDS011;62385;41.594;23.808;2023-10-19T11:44:18;1.25;;;1.10;;
24159;SDS011;62385;41.594;23.808;2023-10-19T11:46:45;1.50;;;0.88;;
24159;SDS011;62385;41.594;23.808;2023-10-19T11:49:10;1.15;;;1.05;;
24159;SDS011;62385;41.594;23.808;2023-10-19T11:51:36;3.40;;;1.35;;
24159;SDS011;62385;41.594;23.808;2023-10-19T11:54:04;1.83;;;1.15;;
24159;SDS011;62385;41.594;23.808;2023-10-19T11:56:31;1.67;;;1.02;;
24159;SDS011;62385;41.594;23.808;2023-10-19T11:58:56;4.63;;;1.48;;
24159;SDS011;62385;41.594;23.808;2023-10-19T12:01:22;0.90;;;0.68;;
24159;SDS011;62385;41.594;23.808;2023-10-19T12:03:50;3.42;;;1.13;;
24159;SDS011;62385;41.594;23.808;2023-10-19T12:06:16;2.28;;;1.13;;
24159;SDS011;62385;41.594;23.808;2023-10-19T12:08:44;2.30;;;1.20;;
24159;SDS011;62385;41.594;23.808;2023-10-19T12:11:10;1.10;;;0.90;;
24159;SDS011;62385;41.594;23.808;2023-10-19T12:13:43;6.45;;;0.95;;
24159;SDS011;62385;41.594;23.808;2023-10-19T12:16:13;1.48;;;1.15;;
24159;SDS011;62385;41.594;23.808;2023-10-19T12:18:43;2.22;;;1.10;;
24159;SDS011;62385;41.594;23.808;2023-10-19T12:21:09;0.68;;;0.68;;
24159;SDS011;62385;41.594;23.808;2023-10-19T12:23:39;1.85;;;1.10;;
24159;SDS011;62385;41.594;23.808;2023-10-19T12:26:05;2.40;;;1.15;;
24159;SDS011;62385;41.594;23.808;2023-10-19T12:28:37;0.80;;;0.60;;
24159;SDS011;62385;41.594;23.808;2023-10-19T12:31:03;0.85;;;0.70;;
24159;SDS011;62385;41.594;23.808;2023-10-19T12:33:30;1.00;;;0.63;;
24159;SDS011;62385;41.594;23.808;2023-10-19T12:35:56;1.13;;;0.60;;
24159;SDS011;62385;41.594;23.808;2023-10-19T12:38:23;1.10;;;0.52;;
24159;SDS011;62385;41.594;23.808;2023-10-19T12:40:50;2.05;;;1.27;;
24159;SDS011;62385;41.594;23.808;2023-10-19T12:43:19;0.75;;;0.60;;
24159;SDS011;62385;41.594;23.808;2023-10-19T12:45:47;1.27;;;0.85;;
24159;SDS011;62385;41.594;23.808;2023-10-19T12:48:16;1.25;;;0.80;;
24159;SDS011;62385;41.594;23.808;2023-10-19T12:50:42;0.50;;;0.30;;
24159;SDS011;62385;41.594;23.808;2023-10-19T12:53:09;0.63;;;0.57;;
24159;SDS011;62385;41.594;23.808;2023-10-19T12:55:35;1.00;;;0.63;;
24159;SDS011;62385;41.594;23.808;2023-10-19T12:58:03;1.23;;;0.80;;
24159;SDS011;62385;41.594;23.808;2023-10-19T13:00:35;1.27;;;0.90;;
24159;SDS011;62385;41.594;23.808;2023-10-19T13:03:09;1.05;;;0.70;;
24159;SDS011;62385;41.594;23.808;2023-10-19T13:05:38;0.80;;;0.52;;
24159;SDS011;62385;41.594;23.808;2023-10-19T13:08:06;0.77;;;0.52;;
24159;SDS011;62385;41.594;23.808;2023-10-19T13:10:40;0.98;;;0.60;;
24159;SDS011;62385;41.594;23.808;2023-10-19T13:13:11;3.65;;;1.10;;
24159;SDS011;62385;41.594;23.808;2023-10-19T13:15:38;1.95;;;1.45;;
24159;SDS011;62385;41.594;23.808;2023-10-19T13:18:06;1.30;;;1.20;;
24159;SDS011;62385;41.594;23.808;2023-10-19T13:20:32;0.80;;;0.80;;
24159;SDS011;62385;41.594;23.808;2023-10-19T13:23:03;1.45;;;0.95;;
24159;SDS011;62385;41.594;23.808;2023-10-19T13:25:38;0.75;;;0.60;;
24159;SDS011;62385;41.594;23.808;2023-10-19T13:28:08;1.33;;;1.15;;
24159;SDS011;62385;41.594;23.808;2023-10-19T13:30:35;1.30;;;1.13;;
24159;SDS011;62385;41.594;23.808;2023-10-19T13:33:03;0.82;;;0.77;;
24159;SDS011;62385;41.594;23.808;2023-10-19T13:35:29;3.53;;;1.05;;
24159;SDS011;62385;41.594;23.808;2023-10-19T13:37:55;1.10;;;0.80;;
24159;SDS011;62385;41.594;23.808;2023-10-19T13:40:22;0.60;;;0.60;;
24159;SDS011;62385;41.594;23.808;2023-10-19T13:42:48;1.15;;;0.70;;
24159;SDS011;62385;41.594;23.808;2023-10-19T13:45:14;5.53;;;1.30;;
24159;SDS011;62385;41.594;23.808;2023-10-19T13:47:40;1.08;;;0.70;;
24159;SDS011;62385;41.594;23.808;2023-10-19T13:50:06;1.02;;;0.90;;
24159;SDS011;62385;41.594;23.808;2023-10-19T13:52:32;1.33;;;0.75;;
24159;SDS011;62385;41.594;23.808;2023-10-19T13:55:00;0.85;;;0.65;;
24159;SDS011;62385;41.594;23.808;2023-10-19T13:57:26;0.50;;;0.40;;
24159;SDS011;62385;41.594;23.808;2023-10-19T13:59:51;1.13;;;0.90;;
24159;SDS011;62385;41.594;23.808;2023-10-19T14:02:18;0.90;;;0.73;;
24159;SDS011;62385;41.594;23.808;2023-10-19T14:04:45;1.33;;;1.00;;
24159;SDS011;62385;41.594;23.808;2023-10-19T14:07:11;1.23;;;0.90;;
24159;SDS011;62385;41.594;23.808;2023-10-19T14:09:36;0.60;;;0.50;;
24159;SDS011;62385;41.594;23.808;2023-10-19T14:12:02;0.75;;;0.68;;
24159;SDS011;62385;41.594;23.808;2023-10-19T14:14:30;0.73;;;0.73;;
24159;SDS011;62385;41.594;23.808;2023-10-19T14:16:55;6.25;;;1.30;;
24159;SDS011;62385;41.594;23.808;2023-10-19T14:19:21;1.00;;;0.77;;
24159;SDS011;62385;41.594;23.808;2023-10-19T14:21:46;1.30;;;1.13;;
24159;SDS011;62385;41.594;23.808;2023-10-19T14:24:14;1.55;;;1.08;;
24159;SDS011;62385;41.594;23.808;2023-10-19T14:26:39;1.15;;;0.95;;
24159;SDS011;62385;41.594;23.808;2023-10-19T14:29:07;0.98;;;0.80;;
24159;SDS011;62385;41.594;23.808;2023-10-19T14:31:33;1.63;;;1.17;;
24159;SDS011;62385;41.594;23.808;2023-10-19T14:33:59;1.23;;;0.90;;
24159;SDS011;62385;41.594;23.808;2023-10-19T14:36:24;1.48;;;1.20;;
24159;SDS011;62385;41.594;23.808;2023-10-19T14:38:50;0.98;;;0.85;;
24159;SDS011;62385;41.594;23.808;2023-10-19T14:41:15;1.05;;;0.82;;
24159;SDS011;62385;41.594;23.808;2023-10-19T14:43:41;1.48;;;0.73;;
24159;SDS011;62385;41.594;23.808;2023-10-19T14:46:07;1.75;;;1.08;;
24159;SDS011;62385;41.594;23.808;2023-10-19T14:48:32;0.65;;;0.63;;
24159;SDS011;62385;41.594;23.808;2023-10-19T14:51:00;1.48;;;0.68;;
24159;SDS011;62385;41.594;23.808;2023-10-19T14:53:26;2.08;;;1.10;;
24159;SDS011;62385;41.594;23.808;2023-10-19T14:55:54;1.67;;;0.93;;
24159;SDS011;62385;41.594;23.808;2023-10-19T14:58:20;0.90;;;0.70;;
24159;SDS011;62385;41.594;23.808;2023-10-19T15:00:46;0.70;;;0.50;;
24159;SDS011;62385;41.594;23.808;2023-10-19T15:03:19;6.03;;;1.20;;
24159;SDS011;62385;41.594;23.808;2023-10-19T15:05:49;1.38;;;0.95;;
24159;SDS011;62385;41.594;23.808;2023-10-19T15:08:15;1.50;;;0.60;;
24159;SDS011;62385;41.594;23.808;2023-10-19T15:10:41;3.30;;;0.98;;
24159;SDS011;62385;41.594;23.808;2023-10-19T15:13:09;0.85;;;0.82;;
24159;SDS011;62385;41.594;23.808;2023-10-19T15:15:35;0.63;;;0.63;;
24159;SDS011;62385;41.594;23.808;2023-10-19T15:18:03;1.83;;;1.65;;
24159;SDS011;62385;41.594;23.808;2023-10-19T15:20:29;1.10;;;0.70;;
24159;SDS011;62385;41.594;23.808;2023-10-19T15:22:55;1.55;;;1.38;;
24159;SDS011;62385;41.594;23.808;2023-10-19T15:25:21;2.58;;;1.30;;
24159;SDS011;62385;41.594;23.808;2023-10-19T15:27:50;2.40;;;1.90;;
24159;SDS011;62385;41.594;23.808;2023-10-19T15:30:16;2.72;;;1.75;;
24159;SDS011;62385;41.594;23.808;2023-10-19T15:32:46;3.45;;;2.10;;
24159;SDS011;62385;41.594;23.808;2023-10-19T15:35:13;2.53;;;1.60;;
24159;SDS011;62385;41.594;23.808;2023-10-19T15:37:41;3.83;;;2.40;;
24159;SDS011;62385;41.594;23.808;2023-10-19T15:40:07;3.80;;;2.63;;
24159;SDS011;62385;41.594;23.808;2023-10-19T15:42:41;3.55;;;2.65;;
24159;SDS011;62385;41.594;23.808;2023-10-19T15:45:08;5.35;;;2.80;;
24159;SDS011;62385;41.594;23.808;2023-10-19T15:47:39;5.03;;;2.22;;
24159;SDS011;62385;41.594;23.808;2023-10-19T15:50:08;2.20;;;1.92;;